sensor_id;sensor_type;location;lat;lon;timestamp;P1;durP1;ratioP1;P2;durP2;ratioP2
12665;SDS011;58531;59.050;17.416;2023-04-24T00:00:53;10.40;;;8.63;;
12665;SDS011;58531;59.050;17.416;2023-04-24T00:03:23;12.63;;;9.33;;
12665;SDS011;58531;59.050;17.416;2023-04-24T00:05:50;11.80;;;8.67;;
12665;SDS011;58531;59.050;17.416;2023-04-24T00:08:17;9.80;;;8.47;;
12665;SDS011;58531;59.050;17.416;2023-04-24T00:10:44;9.20;;;7.97;;
12665;SDS011;58531;59.050;17.416;2023-04-24T00:13:11;11.27;;;8.60;;
12665;SDS011;58531;59.050;17.416;2023-04-24T00:15:38;10.23;;;8.67;;
12665;SDS011;58531;59.050;17.416;2023-04-24T00:18:05;11.33;;;8.20;;
12665;SDS011;58531;59.050;17.416;2023-04-24T00:20:33;10.47;;;7.80;;
12665;SDS011;58531;59.050;17.416;2023-04-24T00:23:00;9.67;;;7.70;;
12665;SDS011;58531;59.050;17.416;2023-04-24T00:25:27;10.67;;;8.20;;
12665;SDS011;58531;59.050;17.416;2023-04-24T00:27:54;11.07;;;8.63;;
12665;SDS011;58531;59.050;17.416;2023-04-24T00:30:21;11.60;;;7.70;;
12665;SDS011;58531;59.050;17.416;2023-04-24T00:32:47;10.80;;;8.33;;
12665;SDS011;58531;59.050;17.416;2023-04-24T00:35:14;12.13;;;8.40;;
12665;SDS011;58531;59.050;17.416;2023-04-24T00:37:42;11.60;;;7.67;;
12665;SDS011;58531;59.050;17.416;2023-04-24T00:40:10;10.37;;;7.60;;
12665;SDS011;58531;59.050;17.416;2023-04-24T00:42:37;8.57;;;7.23;;
12665;SDS011;58531;59.050;17.416;2023-04-24T00:45:05;9.77;;;7.70;;
12665;SDS011;58531;59.050;17.416;2023-04-24T00:47:33;9.40;;;7.40;;
12665;SDS011;58531;59.050;17.416;2023-04-24T00:50:01;10.90;;;7.90;;
12665;SDS011;58531;59.050;17.416;2023-04-24T00:52:28;8.93;;;7.33;;
12665;SDS011;58531;59.050;17.416;2023-04-24T00:54:57;10.77;;;8.03;;
12665;SDS011;58531;59.050;17.416;2023-04-24T00:57:25;10.70;;;8.03;;
12665;SDS011;58531;59.050;17.416;2023-04-24T00:59:52;11.10;;;7.83;;
12665;SDS011;58531;59.050;17.416;2023-04-24T01:02:19;11.43;;;7.90;;
12665;SDS011;58531;59.050;17.416;2023-04-24T01:04:49;7.73;;;6.93;;
12665;SDS011;58531;59.050;17.416;2023-04-24T01:07:18;8.73;;;7.03;;
12665;SDS011;58531;59.050;17.416;2023-04-24T01:09:46;10.87;;;7.97;;
12665;SDS011;58531;59.050;17.416;2023-04-24T01:12:17;9.13;;;7.00;;
12665;SDS011;58531;59.050;17.416;2023-04-24T01:14:44;10.17;;;8.00;;
12665;SDS011;58531;59.050;17.416;2023-04-24T01:17:11;8.63;;;7.23;;
12665;SDS011;58531;59.050;17.416;2023-04-24T01:19:38;10.53;;;7.60;;
12665;SDS011;58531;59.050;17.416;2023-04-24T01:22:09;10.00;;;8.23;;
12665;SDS011;58531;59.050;17.416;2023-04-24T01:24:37;10.07;;;7.93;;
12665;SDS011;58531;59.050;17.416;2023-04-24T01:27:04;9.33;;;7.40;;
12665;SDS011;58531;59.050;17.416;2023-04-24T01:29:31;12.07;;;8.07;;
12665;SDS011;58531;59.050;17.416;2023-04-24T01:31:58;10.10;;;8.03;;
12665;SDS011;58531;59.050;17.416;2023-04-24T01:34:25;9.23;;;7.60;;
12665;SDS011;58531;59.050;17.416;2023-04-24T01:36:52;9.90;;;7.60;;
12665;SDS011;58531;59.050;17.416;2023-04-24T01:39:21;10.90;;;7.73;;
12665;SDS011;58531;59.050;17.416;2023-04-24T01:41:50;9.10;;;7.23;;
12665;SDS011;58531;59.050;17.416;2023-04-24T01:44:17;8.33;;;7.37;;
12665;SDS011;58531;59.050;17.416;2023-04-24T01:46:44;8.53;;;7.00;;
12665;SDS011;58531;59.050;17.416;2023-04-24T01:49:11;9.07;;;6.80;;
12665;SDS011;58531;59.050;17.416;2023-04-24T01:51:38;9.07;;;7.23;;
12665;SDS011;58531;59.050;17.416;2023-04-24T01:54:05;9.77;;;7.07;;
12665;SDS011;58531;59.050;17.416;2023-04-24T01:56:34;8.60;;;7.03;;
12665;SDS011;58531;59.050;17.416;2023-04-24T01:59:02;8.80;;;7.20;;
12665;SDS011;58531;59.050;17.416;2023-04-24T02:01:32;9.13;;;7.30;;
12665;SDS011;58531;59.050;17.416;2023-04-24T02:04:01;10.33;;;7.53;;
12665;SDS011;58531;59.050;17.416;2023-04-24T02:06:27;9.33;;;7.67;;
12665;SDS011;58531;59.050;17.416;2023-04-24T02:08:56;7.90;;;7.07;;
12665;SDS011;58531;59.050;17.416;2023-04-24T02:11:23;8.50;;;7.53;;
12665;SDS011;58531;59.050;17.416;2023-04-24T02:13:51;8.37;;;6.80;;
12665;SDS011;58531;59.050;17.416;2023-04-24T02:16:18;10.90;;;8.07;;
12665;SDS011;58531;59.050;17.416;2023-04-24T02:18:45;10.17;;;7.50;;
12665;SDS011;58531;59.050;17.416;2023-04-24T02:21:12;8.90;;;7.87;;
12665;SDS011;58531;59.050;17.416;2023-04-24T02:23:38;10.00;;;7.67;;
12665;SDS011;58531;59.050;17.416;2023-04-24T02:26:05;10.37;;;8.10;;
12665;SDS011;58531;59.050;17.416;2023-04-24T02:28:32;9.77;;;7.67;;
12665;SDS011;58531;59.050;17.416;2023-04-24T02:31:00;10.73;;;8.00;;
12665;SDS011;58531;59.050;17.416;2023-04-24T02:33:27;8.93;;;7.03;;
12665;SDS011;58531;59.050;17.416;2023-04-24T02:35:54;9.27;;;7.50;;
12665;SDS011;58531;59.050;17.416;2023-04-24T02:38:21;9.67;;;7.73;;
12665;SDS011;58531;59.050;17.416;2023-04-24T02:40:48;10.53;;;8.07;;
12665;SDS011;58531;59.050;17.416;2023-04-24T02:43:14;10.07;;;8.00;;
12665;SDS011;58531;59.050;17.416;2023-04-24T02:45:41;8.83;;;7.27;;
12665;SDS011;58531;59.050;17.416;2023-04-24T02:48:09;9.23;;;7.73;;
12665;SDS011;58531;59.050;17.416;2023-04-24T02:50:36;8.77;;;7.63;;
12665;SDS011;58531;59.050;17.416;2023-04-24T02:53:03;11.00;;;7.87;;
12665;SDS011;58531;59.050;17.416;2023-04-24T02:55:30;10.87;;;7.73;;
12665;SDS011;58531;59.050;17.416;2023-04-24T02:57:57;9.23;;;7.83;;
12665;SDS011;58531;59.050;17.416;2023-04-24T03:00:24;8.73;;;7.40;;
12665;SDS011;58531;59.050;17.416;2023-04-24T03:02:50;9.67;;;8.43;;
12665;SDS011;58531;59.050;17.416;2023-04-24T03:05:19;9.13;;;8.13;;
12665;SDS011;58531;59.050;17.416;2023-04-24T03:07:46;10.70;;;8.60;;
12665;SDS011;58531;59.050;17.416;2023-04-24T03:10:13;11.53;;;8.87;;
12665;SDS011;58531;59.050;17.416;2023-04-24T03:12:40;11.50;;;8.80;;
12665;SDS011;58531;59.050;17.416;2023-04-24T03:15:07;11.43;;;8.50;;
12665;SDS011;58531;59.050;17.416;2023-04-24T03:17:35;11.07;;;8.10;;
12665;SDS011;58531;59.050;17.416;2023-04-24T03:20:02;11.57;;;8.37;;
12665;SDS011;58531;59.050;17.416;2023-04-24T03:22:31;12.93;;;7.97;;
12665;SDS011;58531;59.050;17.416;2023-04-24T03:24:58;11.60;;;7.53;;
12665;SDS011;58531;59.050;17.416;2023-04-24T03:27:25;11.93;;;8.60;;
12665;SDS011;58531;59.050;17.416;2023-04-24T03:29:52;10.40;;;7.57;;
12665;SDS011;58531;59.050;17.416;2023-04-24T03:32:20;14.37;;;8.07;;
12665;SDS011;58531;59.050;17.416;2023-04-24T03:34:47;10.57;;;7.40;;
12665;SDS011;58531;59.050;17.416;2023-04-24T03:37:14;9.60;;;7.00;;
12665;SDS011;58531;59.050;17.416;2023-04-24T03:39:43;10.43;;;6.33;;
12665;SDS011;58531;59.050;17.416;2023-04-24T03:42:10;9.63;;;6.30;;
12665;SDS011;58531;59.050;17.416;2023-04-24T03:44:37;9.83;;;6.77;;
12665;SDS011;58531;59.050;17.416;2023-04-24T03:47:03;10.40;;;7.03;;
12665;SDS011;58531;59.050;17.416;2023-04-24T03:49:30;8.23;;;6.20;;
12665;SDS011;58531;59.050;17.416;2023-04-24T03:51:57;10.57;;;6.77;;
12665;SDS011;58531;59.050;17.416;2023-04-24T03:54:24;11.40;;;6.70;;
12665;SDS011;58531;59.050;17.416;2023-04-24T03:56:52;9.47;;;6.70;;
12665;SDS011;58531;59.050;17.416;2023-04-24T03:59:19;9.97;;;6.33;;
12665;SDS011;58531;59.050;17.416;2023-04-24T04:01:46;11.17;;;6.80;;
12665;SDS011;58531;59.050;17.416;2023-04-24T04:04:13;8.10;;;5.70;;
12665;SDS011;58531;59.050;17.416;2023-04-24T04:06:40;7.43;;;5.67;;
12665;SDS011;58531;59.050;17.416;2023-04-24T04:09:07;7.03;;;5.10;;
12665;SDS011;58531;59.050;17.416;2023-04-24T04:11:34;9.10;;;5.33;;
12665;SDS011;58531;59.050;17.416;2023-04-24T04:14:03;7.23;;;4.83;;
12665;SDS011;58531;59.050;17.416;2023-04-24T04:16:30;7.60;;;4.43;;
12665;SDS011;58531;59.050;17.416;2023-04-24T04:18:57;5.13;;;3.63;;
12665;SDS011;58531;59.050;17.416;2023-04-24T04:21:24;7.13;;;4.57;;
12665;SDS011;58531;59.050;17.416;2023-04-24T04:23:52;6.93;;;4.37;;
12665;SDS011;58531;59.050;17.416;2023-04-24T04:26:19;7.50;;;4.23;;
12665;SDS011;58531;59.050;17.416;2023-04-24T04:28:46;9.33;;;4.30;;
12665;SDS011;58531;59.050;17.416;2023-04-24T04:31:15;6.03;;;4.50;;
12665;SDS011;58531;59.050;17.416;2023-04-24T04:33:42;8.10;;;4.30;;
12665;SDS011;58531;59.050;17.416;2023-04-24T04:36:09;6.23;;;3.90;;
12665;SDS011;58531;59.050;17.416;2023-04-24T04:38:35;9.50;;;4.33;;
12665;SDS011;58531;59.050;17.416;2023-04-24T04:41:02;8.90;;;4.47;;
12665;SDS011;58531;59.050;17.416;2023-04-24T04:43:29;7.63;;;4.10;;
12665;SDS011;58531;59.050;17.416;2023-04-24T04:45:59;5.57;;;3.67;;
12665;SDS011;58531;59.050;17.416;2023-04-24T04:48:29;6.17;;;3.77;;
12665;SDS011;58531;59.050;17.416;2023-04-24T04:50:56;8.20;;;3.53;;
12665;SDS011;58531;59.050;17.416;2023-04-24T04:53:23;7.40;;;3.93;;
12665;SDS011;58531;59.050;17.416;2023-04-24T04:55:51;6.50;;;3.50;;
12665;SDS011;58531;59.050;17.416;2023-04-24T04:58:17;6.83;;;3.63;;
12665;SDS011;58531;59.050;17.416;2023-04-24T05:00:45;6.33;;;3.93;;
12665;SDS011;58531;59.050;17.416;2023-04-24T05:03:11;8.60;;;3.80;;
12665;SDS011;58531;59.050;17.416;2023-04-24T05:05:39;6.20;;;3.57;;
12665;SDS011;58531;59.050;17.416;2023-04-24T05:08:06;5.30;;;3.20;;
12665;SDS011;58531;59.050;17.416;2023-04-24T05:10:33;5.40;;;3.13;;
12665;SDS011;58531;59.050;17.416;2023-04-24T05:13:02;5.30;;;2.93;;
12665;SDS011;58531;59.050;17.416;2023-04-24T05:15:28;4.73;;;3.13;;
12665;SDS011;58531;59.050;17.416;2023-04-24T05:17:56;6.97;;;3.03;;
12665;SDS011;58531;59.050;17.416;2023-04-24T05:20:22;5.93;;;2.97;;
12665;SDS011;58531;59.050;17.416;2023-04-24T05:22:51;4.90;;;3.13;;
12665;SDS011;58531;59.050;17.416;2023-04-24T05:25:18;6.40;;;3.90;;
12665;SDS011;58531;59.050;17.416;2023-04-24T05:27:44;4.07;;;2.47;;
12665;SDS011;58531;59.050;17.416;2023-04-24T05:30:12;5.83;;;2.90;;
12665;SDS011;58531;59.050;17.416;2023-04-24T05:32:39;5.10;;;3.03;;
12665;SDS011;58531;59.050;17.416;2023-04-24T05:35:06;6.13;;;3.10;;
12665;SDS011;58531;59.050;17.416;2023-04-24T05:37:33;3.63;;;2.80;;
12665;SDS011;58531;59.050;17.416;2023-04-24T05:40:01;4.17;;;2.90;;
12665;SDS011;58531;59.050;17.416;2023-04-24T05:42:30;3.77;;;2.77;;
12665;SDS011;58531;59.050;17.416;2023-04-24T05:44:57;3.33;;;2.87;;
12665;SDS011;58531;59.050;17.416;2023-04-24T05:47:24;4.37;;;2.80;;
12665;SDS011;58531;59.050;17.416;2023-04-24T05:49:51;4.37;;;2.77;;
12665;SDS011;58531;59.050;17.416;2023-04-24T05:52:18;6.37;;;3.07;;
12665;SDS011;58531;59.050;17.416;2023-04-24T05:54:45;4.30;;;2.80;;
12665;SDS011;58531;59.050;17.416;2023-04-24T05:57:13;4.03;;;2.90;;
12665;SDS011;58531;59.050;17.416;2023-04-24T05:59:40;4.20;;;2.87;;
12665;SDS011;58531;59.050;17.416;2023-04-24T06:02:07;7.27;;;3.90;;
12665;SDS011;58531;59.050;17.416;2023-04-24T06:04:34;4.50;;;2.53;;
12665;SDS011;58531;59.050;17.416;2023-04-24T06:07:01;4.37;;;3.07;;
12665;SDS011;58531;59.050;17.416;2023-04-24T06:09:28;4.77;;;3.00;;
12665;SDS011;58531;59.050;17.416;2023-04-24T06:11:54;5.40;;;3.47;;
12665;SDS011;58531;59.050;17.416;2023-04-24T06:14:23;6.33;;;3.10;;
12665;SDS011;58531;59.050;17.416;2023-04-24T06:16:49;4.43;;;3.13;;
12665;SDS011;58531;59.050;17.416;2023-04-24T06:19:17;4.90;;;3.23;;
12665;SDS011;58531;59.050;17.416;2023-04-24T06:21:43;4.83;;;3.30;;
12665;SDS011;58531;59.050;17.416;2023-04-24T06:24:10;7.67;;;3.10;;
12665;SDS011;58531;59.050;17.416;2023-04-24T06:26:40;5.40;;;2.93;;
12665;SDS011;58531;59.050;17.416;2023-04-24T06:29:07;4.87;;;3.13;;
12665;SDS011;58531;59.050;17.416;2023-04-24T06:31:35;5.70;;;3.07;;
12665;SDS011;58531;59.050;17.416;2023-04-24T06:34:03;5.13;;;3.00;;
12665;SDS011;58531;59.050;17.416;2023-04-24T06:36:30;4.20;;;3.10;;
12665;SDS011;58531;59.050;17.416;2023-04-24T06:38:59;4.13;;;2.87;;
12665;SDS011;58531;59.050;17.416;2023-04-24T06:41:26;5.03;;;3.40;;
12665;SDS011;58531;59.050;17.416;2023-04-24T06:43:53;5.47;;;3.10;;
12665;SDS011;58531;59.050;17.416;2023-04-24T06:46:20;5.13;;;3.07;;
12665;SDS011;58531;59.050;17.416;2023-04-24T06:48:52;3.57;;;2.70;;
12665;SDS011;58531;59.050;17.416;2023-04-24T06:51:21;3.63;;;2.60;;
12665;SDS011;58531;59.050;17.416;2023-04-24T06:53:48;4.20;;;2.67;;
12665;SDS011;58531;59.050;17.416;2023-04-24T06:56:15;3.83;;;2.23;;
12665;SDS011;58531;59.050;17.416;2023-04-24T06:58:42;3.93;;;2.60;;
12665;SDS011;58531;59.050;17.416;2023-04-24T07:01:10;3.77;;;2.53;;
12665;SDS011;58531;59.050;17.416;2023-04-24T07:03:37;4.33;;;2.80;;
12665;SDS011;58531;59.050;17.416;2023-04-24T07:06:05;3.97;;;2.80;;
12665;SDS011;58531;59.050;17.416;2023-04-24T07:08:32;2.63;;;2.03;;
12665;SDS011;58531;59.050;17.416;2023-04-24T07:11:01;3.97;;;2.57;;
12665;SDS011;58531;59.050;17.416;2023-04-24T07:13:28;3.20;;;2.20;;
12665;SDS011;58531;59.050;17.416;2023-04-24T07:15:55;3.50;;;2.63;;
12665;SDS011;58531;59.050;17.416;2023-04-24T07:18:22;3.33;;;2.57;;
12665;SDS011;58531;59.050;17.416;2023-04-24T07:20:49;3.30;;;2.50;;
12665;SDS011;58531;59.050;17.416;2023-04-24T07:23:17;3.03;;;2.73;;
12665;SDS011;58531;59.050;17.416;2023-04-24T07:25:44;4.00;;;2.63;;
12665;SDS011;58531;59.050;17.416;2023-04-24T07:28:11;2.73;;;2.10;;
12665;SDS011;58531;59.050;17.416;2023-04-24T07:30:38;4.00;;;2.67;;
12665;SDS011;58531;59.050;17.416;2023-04-24T07:33:05;4.07;;;2.27;;
12665;SDS011;58531;59.050;17.416;2023-04-24T07:35:32;3.93;;;2.40;;
12665;SDS011;58531;59.050;17.416;2023-04-24T07:37:59;4.13;;;2.50;;
12665;SDS011;58531;59.050;17.416;2023-04-24T07:40:27;3.67;;;2.67;;
12665;SDS011;58531;59.050;17.416;2023-04-24T07:42:54;3.70;;;2.63;;
12665;SDS011;58531;59.050;17.416;2023-04-24T07:45:21;3.97;;;2.90;;
12665;SDS011;58531;59.050;17.416;2023-04-24T07:47:51;3.43;;;2.30;;
12665;SDS011;58531;59.050;17.416;2023-04-24T07:50:18;3.10;;;2.80;;
12665;SDS011;58531;59.050;17.416;2023-04-24T07:52:45;4.33;;;3.00;;
12665;SDS011;58531;59.050;17.416;2023-04-24T07:55:11;3.23;;;2.43;;
12665;SDS011;58531;59.050;17.416;2023-04-24T07:57:39;3.70;;;3.03;;
12665;SDS011;58531;59.050;17.416;2023-04-24T08:00:07;3.27;;;2.53;;
12665;SDS011;58531;59.050;17.416;2023-04-24T08:02:35;3.63;;;2.67;;
12665;SDS011;58531;59.050;17.416;2023-04-24T08:05:02;3.33;;;2.70;;
12665;SDS011;58531;59.050;17.416;2023-04-24T08:07:29;4.00;;;2.50;;
12665;SDS011;58531;59.050;17.416;2023-04-24T08:09:55;4.53;;;2.73;;
12665;SDS011;58531;59.050;17.416;2023-04-24T08:12:22;3.60;;;2.60;;
12665;SDS011;58531;59.050;17.416;2023-04-24T08:14:50;4.03;;;2.93;;
12665;SDS011;58531;59.050;17.416;2023-04-24T08:17:17;3.77;;;2.33;;
12665;SDS011;58531;59.050;17.416;2023-04-24T08:19:44;3.87;;;2.50;;
12665;SDS011;58531;59.050;17.416;2023-04-24T08:22:13;3.70;;;2.33;;
12665;SDS011;58531;59.050;17.416;2023-04-24T08:24:40;3.17;;;2.30;;
12665;SDS011;58531;59.050;17.416;2023-04-24T08:27:07;2.93;;;2.30;;
12665;SDS011;58531;59.050;17.416;2023-04-24T08:29:35;3.57;;;3.00;;
12665;SDS011;58531;59.050;17.416;2023-04-24T08:32:03;3.40;;;2.50;;
12665;SDS011;58531;59.050;17.416;2023-04-24T08:34:30;3.90;;;3.10;;
12665;SDS011;58531;59.050;17.416;2023-04-24T08:36:57;4.30;;;3.07;;
12665;SDS011;58531;59.050;17.416;2023-04-24T08:39:24;2.70;;;2.50;;
12665;SDS011;58531;59.050;17.416;2023-04-24T08:41:51;4.13;;;2.87;;
12665;SDS011;58531;59.050;17.416;2023-04-24T08:44:19;3.87;;;3.00;;
12665;SDS011;58531;59.050;17.416;2023-04-24T08:46:47;2.97;;;2.50;;
12665;SDS011;58531;59.050;17.416;2023-04-24T08:49:17;3.60;;;2.63;;
12665;SDS011;58531;59.050;17.416;2023-04-24T08:51:45;3.83;;;2.93;;
12665;SDS011;58531;59.050;17.416;2023-04-24T08:54:13;3.87;;;3.13;;
12665;SDS011;58531;59.050;17.416;2023-04-24T08:56:40;4.20;;;3.40;;
12665;SDS011;58531;59.050;17.416;2023-04-24T08:59:10;4.33;;;3.50;;
12665;SDS011;58531;59.050;17.416;2023-04-24T09:01:37;4.17;;;3.20;;
12665;SDS011;58531;59.050;17.416;2023-04-24T09:04:05;3.67;;;3.03;;
12665;SDS011;58531;59.050;17.416;2023-04-24T09:06:36;4.47;;;3.67;;
12665;SDS011;58531;59.050;17.416;2023-04-24T09:09:03;3.53;;;3.10;;
12665;SDS011;58531;59.050;17.416;2023-04-24T09:11:30;4.13;;;3.43;;
12665;SDS011;58531;59.050;17.416;2023-04-24T09:13:58;4.20;;;3.17;;
12665;SDS011;58531;59.050;17.416;2023-04-24T09:16:26;4.93;;;2.97;;
12665;SDS011;58531;59.050;17.416;2023-04-24T09:18:54;4.10;;;3.30;;
12665;SDS011;58531;59.050;17.416;2023-04-24T09:21:21;3.83;;;2.90;;
12665;SDS011;58531;59.050;17.416;2023-04-24T09:23:58;5.03;;;3.40;;
12665;SDS011;58531;59.050;17.416;2023-04-24T09:26:29;3.77;;;3.20;;
12665;SDS011;58531;59.050;17.416;2023-04-24T09:28:58;3.67;;;2.83;;
12665;SDS011;58531;59.050;17.416;2023-04-24T09:31:26;5.23;;;3.63;;
12665;SDS011;58531;59.050;17.416;2023-04-24T09:33:54;4.37;;;3.63;;
12665;SDS011;58531;59.050;17.416;2023-04-24T09:36:28;4.50;;;3.80;;
12665;SDS011;58531;59.050;17.416;2023-04-24T09:38:59;4.00;;;3.20;;
12665;SDS011;58531;59.050;17.416;2023-04-24T09:41:27;3.73;;;3.20;;
12665;SDS011;58531;59.050;17.416;2023-04-24T09:43:55;4.67;;;3.80;;
12665;SDS011;58531;59.050;17.416;2023-04-24T09:46:28;4.53;;;3.90;;
12665;SDS011;58531;59.050;17.416;2023-04-24T09:48:56;5.00;;;3.97;;
12665;SDS011;58531;59.050;17.416;2023-04-24T09:51:33;5.97;;;4.10;;
12665;SDS011;58531;59.050;17.416;2023-04-24T09:54:04;5.57;;;4.33;;
12665;SDS011;58531;59.050;17.416;2023-04-24T09:56:37;7.17;;;5.50;;
12665;SDS011;58531;59.050;17.416;2023-04-24T09:59:08;6.77;;;5.00;;
12665;SDS011;58531;59.050;17.416;2023-04-24T10:01:36;5.77;;;5.17;;
12665;SDS011;58531;59.050;17.416;2023-04-24T10:04:07;6.03;;;4.90;;
12665;SDS011;58531;59.050;17.416;2023-04-24T10:06:41;6.20;;;5.30;;
12665;SDS011;58531;59.050;17.416;2023-04-24T10:09:10;6.87;;;5.43;;
12665;SDS011;58531;59.050;17.416;2023-04-24T10:11:39;7.83;;;5.60;;
12665;SDS011;58531;59.050;17.416;2023-04-24T10:14:09;7.47;;;5.17;;
12665;SDS011;58531;59.050;17.416;2023-04-24T10:16:36;6.60;;;5.30;;
12665;SDS011;58531;59.050;17.416;2023-04-24T10:19:04;6.80;;;5.30;;
12665;SDS011;58531;59.050;17.416;2023-04-24T10:21:31;6.70;;;5.43;;
12665;SDS011;58531;59.050;17.416;2023-04-24T10:23:59;6.23;;;5.63;;
12665;SDS011;58531;59.050;17.416;2023-04-24T10:26:30;7.80;;;5.87;;
12665;SDS011;58531;59.050;17.416;2023-04-24T10:28:57;6.83;;;5.90;;
12665;SDS011;58531;59.050;17.416;2023-04-24T10:31:25;9.17;;;6.30;;
12665;SDS011;58531;59.050;17.416;2023-04-24T10:33:53;7.30;;;5.80;;
12665;SDS011;58531;59.050;17.416;2023-04-24T10:36:21;6.80;;;5.43;;
12665;SDS011;58531;59.050;17.416;2023-04-24T10:38:51;8.00;;;6.33;;
12665;SDS011;58531;59.050;17.416;2023-04-24T10:41:21;8.00;;;5.90;;
12665;SDS011;58531;59.050;17.416;2023-04-24T10:43:50;8.33;;;5.53;;
12665;SDS011;58531;59.050;17.416;2023-04-24T10:46:30;6.70;;;5.47;;
12665;SDS011;58531;59.050;17.416;2023-04-24T10:48:57;6.70;;;5.60;;
12665;SDS011;58531;59.050;17.416;2023-04-24T10:51:25;7.23;;;5.50;;
12665;SDS011;58531;59.050;17.416;2023-04-24T10:54:21;6.57;;;4.73;;
12665;SDS011;58531;59.050;17.416;2023-04-24T10:56:49;7.60;;;5.30;;
12665;SDS011;58531;59.050;17.416;2023-04-24T10:59:24;6.60;;;4.70;;
12665;SDS011;58531;59.050;17.416;2023-04-24T11:01:52;4.50;;;3.67;;
12665;SDS011;58531;59.050;17.416;2023-04-24T11:04:28;6.40;;;4.27;;
12665;SDS011;58531;59.050;17.416;2023-04-24T11:06:56;9.20;;;8.40;;
12665;SDS011;58531;59.050;17.416;2023-04-24T11:09:26;4.30;;;3.90;;
12665;SDS011;58531;59.050;17.416;2023-04-24T11:12:02;5.10;;;3.50;;
12665;SDS011;58531;59.050;17.416;2023-04-24T11:14:43;3.63;;;3.23;;
12665;SDS011;58531;59.050;17.416;2023-04-24T11:17:29;3.57;;;2.73;;
12665;SDS011;58531;59.050;17.416;2023-04-24T11:20:00;3.70;;;2.53;;
12665;SDS011;58531;59.050;17.416;2023-04-24T11:22:28;3.53;;;2.70;;
12665;SDS011;58531;59.050;17.416;2023-04-24T11:24:59;4.03;;;2.70;;
12665;SDS011;58531;59.050;17.416;2023-04-24T11:27:29;4.77;;;3.63;;
12665;SDS011;58531;59.050;17.416;2023-04-24T11:30:02;4.73;;;3.20;;
12665;SDS011;58531;59.050;17.416;2023-04-24T11:32:30;5.07;;;3.63;;
12665;SDS011;58531;59.050;17.416;2023-04-24T11:35:02;5.37;;;3.60;;
12665;SDS011;58531;59.050;17.416;2023-04-24T11:37:35;4.23;;;3.47;;
12665;SDS011;58531;59.050;17.416;2023-04-24T11:40:03;4.00;;;3.13;;
12665;SDS011;58531;59.050;17.416;2023-04-24T11:42:33;4.00;;;3.03;;
12665;SDS011;58531;59.050;17.416;2023-04-24T11:45:02;4.87;;;2.90;;
12665;SDS011;58531;59.050;17.416;2023-04-24T11:47:34;5.20;;;3.47;;
12665;SDS011;58531;59.050;17.416;2023-04-24T11:50:01;4.03;;;3.07;;
12665;SDS011;58531;59.050;17.416;2023-04-24T11:52:30;3.93;;;2.93;;
12665;SDS011;58531;59.050;17.416;2023-04-24T11:54:57;5.97;;;2.90;;
12665;SDS011;58531;59.050;17.416;2023-04-24T11:57:24;3.57;;;2.50;;
12665;SDS011;58531;59.050;17.416;2023-04-24T11:59:54;3.57;;;2.80;;
12665;SDS011;58531;59.050;17.416;2023-04-24T12:02:23;2.87;;;2.40;;
12665;SDS011;58531;59.050;17.416;2023-04-24T12:04:51;3.10;;;2.70;;
12665;SDS011;58531;59.050;17.416;2023-04-24T12:07:18;3.43;;;2.70;;
12665;SDS011;58531;59.050;17.416;2023-04-24T12:09:45;2.87;;;2.37;;
12665;SDS011;58531;59.050;17.416;2023-04-24T12:12:14;4.60;;;2.80;;
12665;SDS011;58531;59.050;17.416;2023-04-24T12:14:43;2.80;;;2.33;;
12665;SDS011;58531;59.050;17.416;2023-04-24T12:17:24;4.30;;;2.93;;
12665;SDS011;58531;59.050;17.416;2023-04-24T12:19:52;2.83;;;2.63;;
12665;SDS011;58531;59.050;17.416;2023-04-24T12:22:25;3.13;;;2.37;;
12665;SDS011;58531;59.050;17.416;2023-04-24T12:24:55;2.90;;;2.60;;
12665;SDS011;58531;59.050;17.416;2023-04-24T12:27:23;2.80;;;2.50;;
12665;SDS011;58531;59.050;17.416;2023-04-24T12:29:53;3.47;;;2.47;;
12665;SDS011;58531;59.050;17.416;2023-04-24T12:32:21;3.77;;;2.60;;
12665;SDS011;58531;59.050;17.416;2023-04-24T12:34:50;4.23;;;3.10;;
12665;SDS011;58531;59.050;17.416;2023-04-24T12:37:17;3.47;;;2.63;;
12665;SDS011;58531;59.050;17.416;2023-04-24T12:39:57;4.07;;;2.77;;
12665;SDS011;58531;59.050;17.416;2023-04-24T12:42:25;3.37;;;2.60;;
12665;SDS011;58531;59.050;17.416;2023-04-24T12:44:55;3.80;;;2.80;;
12665;SDS011;58531;59.050;17.416;2023-04-24T12:47:24;4.87;;;3.13;;
12665;SDS011;58531;59.050;17.416;2023-04-24T12:49:52;3.70;;;3.30;;
12665;SDS011;58531;59.050;17.416;2023-04-24T12:52:20;3.77;;;2.97;;
12665;SDS011;58531;59.050;17.416;2023-04-24T12:54:48;4.13;;;2.83;;
12665;SDS011;58531;59.050;17.416;2023-04-24T12:57:16;3.93;;;2.87;;
12665;SDS011;58531;59.050;17.416;2023-04-24T12:59:42;4.23;;;3.50;;
12665;SDS011;58531;59.050;17.416;2023-04-24T13:02:09;3.77;;;3.13;;
12665;SDS011;58531;59.050;17.416;2023-04-24T13:04:37;4.27;;;3.47;;
12665;SDS011;58531;59.050;17.416;2023-04-24T13:07:06;5.47;;;3.73;;
12665;SDS011;58531;59.050;17.416;2023-04-24T13:09:34;4.47;;;3.33;;
12665;SDS011;58531;59.050;17.416;2023-04-24T13:12:01;4.33;;;3.60;;
12665;SDS011;58531;59.050;17.416;2023-04-24T13:14:28;5.77;;;4.07;;
12665;SDS011;58531;59.050;17.416;2023-04-24T13:16:54;4.17;;;3.37;;
12665;SDS011;58531;59.050;17.416;2023-04-24T13:19:23;4.47;;;3.77;;
12665;SDS011;58531;59.050;17.416;2023-04-24T13:21:50;5.07;;;3.80;;
12665;SDS011;58531;59.050;17.416;2023-04-24T13:24:19;4.00;;;3.50;;
12665;SDS011;58531;59.050;17.416;2023-04-24T13:26:46;4.57;;;3.50;;
12665;SDS011;58531;59.050;17.416;2023-04-24T13:29:12;6.03;;;3.67;;
12665;SDS011;58531;59.050;17.416;2023-04-24T13:31:39;4.87;;;3.63;;
12665;SDS011;58531;59.050;17.416;2023-04-24T13:34:06;4.03;;;3.57;;
12665;SDS011;58531;59.050;17.416;2023-04-24T13:36:33;4.47;;;3.13;;
12665;SDS011;58531;59.050;17.416;2023-04-24T13:39:00;3.67;;;3.23;;
12665;SDS011;58531;59.050;17.416;2023-04-24T13:41:30;4.80;;;3.60;;
12665;SDS011;58531;59.050;17.416;2023-04-24T13:43:58;4.33;;;3.17;;
12665;SDS011;58531;59.050;17.416;2023-04-24T13:46:25;7.27;;;3.60;;
12665;SDS011;58531;59.050;17.416;2023-04-24T13:48:52;5.60;;;3.67;;
12665;SDS011;58531;59.050;17.416;2023-04-24T13:51:19;6.23;;;3.30;;
12665;SDS011;58531;59.050;17.416;2023-04-24T13:53:45;5.73;;;3.70;;
12665;SDS011;58531;59.050;17.416;2023-04-24T13:56:12;5.17;;;3.70;;
12665;SDS011;58531;59.050;17.416;2023-04-24T13:58:41;6.03;;;3.30;;
12665;SDS011;58531;59.050;17.416;2023-04-24T14:01:07;4.30;;;3.40;;
12665;SDS011;58531;59.050;17.416;2023-04-24T14:03:35;4.13;;;3.33;;
12665;SDS011;58531;59.050;17.416;2023-04-24T14:06:03;7.30;;;4.23;;
12665;SDS011;58531;59.050;17.416;2023-04-24T14:08:31;4.30;;;2.93;;
12665;SDS011;58531;59.050;17.416;2023-04-24T14:10:58;3.80;;;2.93;;
12665;SDS011;58531;59.050;17.416;2023-04-24T14:13:25;4.67;;;3.57;;
12665;SDS011;58531;59.050;17.416;2023-04-24T14:15:54;4.00;;;2.87;;
12665;SDS011;58531;59.050;17.416;2023-04-24T14:18:21;4.13;;;3.03;;
12665;SDS011;58531;59.050;17.416;2023-04-24T14:20:47;3.87;;;3.17;;
12665;SDS011;58531;59.050;17.416;2023-04-24T14:23:14;3.70;;;2.90;;
12665;SDS011;58531;59.050;17.416;2023-04-24T14:25:41;3.93;;;3.00;;
12665;SDS011;58531;59.050;17.416;2023-04-24T14:28:09;4.90;;;3.27;;
12665;SDS011;58531;59.050;17.416;2023-04-24T14:30:35;5.70;;;3.33;;
12665;SDS011;58531;59.050;17.416;2023-04-24T14:33:07;3.67;;;2.63;;
12665;SDS011;58531;59.050;17.416;2023-04-24T14:35:33;4.40;;;2.63;;
12665;SDS011;58531;59.050;17.416;2023-04-24T14:38:01;5.00;;;2.87;;